Clarksville, TN (37043)

12:13 AM CST del 26 novembre 2014 (GMT -0600)
South Sango | Change Station
CLOSE
Current Station
Stazione meteo personale
Location: Clarksville, TN
Altitudine: 604 ft
Stazioni meteo nelle vicinanze

Alt. 604 ft 36.43 °N, 87.26 °W | Updated 3 minutes ago

Sereno
Sereno
29.1 °F
Sembra 29 °F
N
0.0
Vento Variabile Vento da ONO

Oggi
Massima -- | Minima -- °F
--% Possibilità di precip.
Ieri
Massima -- | Minima -- °F
Precip. -- in
6:37 AM 4:34 PM
Luna crescente, 17% visible
Pressione 30.18 in
Visibilità 10.0 miglia
Nuvole Sereno
Raffreddamento del vento 29 °F
Punto di rugiada 27 °F
Umidità 91%
Piovosità 0.00 in
Spessore del manto nevoso Non disponibile.
Raggi UV 0 fuori da 12
Polline .40 fuori da 12
Qualità dell'aria Non disponibile.
Flu Activity Non disponibile.
METAR KHOP 260558Z AUTO 36004KT 10SM CLR 00/M02 A3016 RMK AO2 SLP218 T10051024 10049 21005 400771005 57009

More Conditions Fewer Conditions

Pressione 30.18 in
Visibilità 10.0 miglia
Nuvole Sereno
Raffreddamento del vento 29 °F
Punto di rugiada 27 °F
Umidità 91%
Piovosità 0.00 in
Spessore del manto nevoso Non disponibile.
Raggi UV 0 fuori da 12
Polline .40 fuori da 12
Qualità dell'aria Non disponibile.
Flu Activity Non disponibile.
METAR KHOP 260558Z AUTO 36004KT 10SM CLR 00/M02 A3016 RMK AO2 SLP218 T10051024 10049 21005 400771005 57009

More Conditions Fewer Conditions

10-Day Weather Forecast

Almanac

Astronomia

Nov. 26, 2014 Alba Tramonto
Ora attuale
Crepuscolo civile
Crepuscolo nautico
Crepuscolo astronomico
Luna
Estensione della luce visibile
Lunghezza del giorno
Tomorrow will be .
, % of the Moon is Illuminated

Gli estremi di oggi

State Highs State Lows

Community

WunderPhotos

Upload Photos

1,773,689 foto caricate!

WunderBlogs® & News

Nearby

Qualità dell'aria

  Qualità dell'aria Indice AQ Inquinante
Not available.

Profondità neve

Stazione Profondità Altitudine

Attività sismica

Città  Distanza Mag. Data & Ora
Minimo Magnitudo Mostrato è 2.5.

Temperature delle acque costiere

Località Temperatura

Stazioni meteo nelle vicinanze